Time;durP1;ratioP1;P1;durP2;ratioP2;P2;SDS_P1;SDS_P2;PMS_P1;PMS_P2;Temp;Humidity;BMP_temperature;BMP_pressure;BME280_temperature;BME280_humidity;BME280_pressure;Samples;Min_cycle;Max_cycle;Signal;HPM_P1;HPM_P2
2023/10/10 00:00:23;;;;;;;12.50;11.17;;;10.80;99.90;;;;;;5012922;28;20418;-69
2023/10/10 00:02:52;;;;;;;12.47;11.17;;;10.80;99.90;;;;;;5011987;28;20657;-68
2023/10/10 00:05:18;;;;;;;13.27;11.83;;;10.80;99.90;;;;;;5012699;28;20430;-70
2023/10/10 00:07:44;;;;;;;14.37;11.00;;;10.80;99.90;;;;;;5012733;28;20430;-70
2023/10/10 00:10:13;;;;;;;13.63;9.90;;;10.90;99.90;;;;;;5012738;28;20415;-69
2023/10/10 00:12:39;;;;;;;13.83;10.33;;;10.90;99.90;;;;;;5012689;28;20522;-69
2023/10/10 00:15:22;;;;;;;10.80;8.63;;;10.90;99.90;;;;;;5012418;28;20455;-68
2023/10/10 00:17:48;;;;;;;12.60;10.50;;;10.90;99.90;;;;;;5012463;28;20447;-69
2023/10/10 00:20:20;;;;;;;9.97;8.87;;;10.90;99.90;;;;;;5012470;28;20756;-70
2023/10/10 00:22:47;;;;;;;16.13;9.80;;;10.90;99.90;;;;;;4994671;28;20172;-69
2023/10/10 00:25:30;;;;;;;11.20;8.40;;;10.90;99.90;;;;;;5012338;28;20435;-68
2023/10/10 00:27:59;;;;;;;10.13;7.90;;;10.90;99.90;;;;;;5012457;28;20850;-68
2023/10/10 00:30:33;;;;;;;9.63;8.43;;;10.90;99.90;;;;;;5012148;28;20430;-68
2023/10/10 00:33:03;;;;;;;9.33;7.93;;;10.80;99.90;;;;;;5012259;28;20410;-69
2023/10/10 00:35:29;;;;;;;9.00;7.53;;;10.80;99.90;;;;;;5012309;28;20431;-69
2023/10/10 00:37:57;;;;;;;10.03;8.43;;;10.90;99.90;;;;;;4994474;28;20470;-69
2023/10/10 00:40:30;;;;;;;10.77;7.63;;;10.90;99.90;;;;;;5012028;28;20407;-67
2023/10/10 00:42:58;;;;;;;9.87;8.87;;;10.90;99.90;;;;;;5012284;28;20502;-67
2023/10/10 00:45:28;;;;;;;9.20;8.17;;;10.80;99.90;;;;;;5012242;28;20928;-70
2023/10/10 00:47:55;;;;;;;10.00;8.47;;;10.80;99.90;;;;;;5012157;28;20429;-69
2023/10/10 00:50:25;;;;;;;10.20;9.20;;;10.80;99.90;;;;;;5011862;28;20983;-68
2023/10/10 00:53:01;;;;;;;12.80;9.00;;;10.80;99.90;;;;;;4994053;28;20506;-67
2023/10/10 00:55:33;;;;;;;10.93;9.00;;;10.80;99.90;;;;;;5011578;28;20470;-71
2023/10/10 00:58:00;;;;;;;15.57;10.10;;;10.80;99.90;;;;;;5011651;28;20489;-68
2023/10/10 01:00:29;;;;;;;12.60;9.90;;;10.80;99.90;;;;;;5011829;28;20407;-68
2023/10/10 01:02:57;;;;;;;11.10;9.57;;;10.90;99.90;;;;;;5011934;28;20921;-68
2023/10/10 01:05:39;;;;;;;11.80;9.10;;;10.90;99.90;;;;;;5011604;28;20461;-70
2023/10/10 01:08:08;;;;;;;11.93;9.27;;;10.90;99.90;;;;;;5011002;28;20765;-69
2023/10/10 01:10:43;;;;;;;13.50;9.90;;;10.90;99.90;;;;;;5011842;28;20411;-69
2023/10/10 01:13:10;;;;;;;10.30;8.07;;;10.90;99.90;;;;;;5011377;28;20403;-68
2023/10/10 01:15:37;;;;;;;11.40;9.63;;;11.00;99.90;;;;;;5011554;28;20419;-68
2023/10/10 01:18:03;;;;;;;13.70;10.23;;;11.00;99.90;;;;;;5011761;28;20467;-68
2023/10/10 01:20:45;;;;;;;15.20;9.70;;;11.00;99.90;;;;;;5011469;28;20412;-69
2023/10/10 01:23:14;;;;;;;11.87;8.47;;;11.00;99.90;;;;;;5011278;28;20424;-70
2023/10/10 01:30:58;;;;;;;14.80;8.23;;;11.00;99.90;;;;;;5011102;28;20603;-68
2023/10/10 01:33:36;;;;;;;8.23;7.43;;;11.00;99.90;;;;;;5011199;28;20458;-69
2023/10/10 01:36:03;;;;;;;8.67;7.80;;;11.00;99.90;;;;;;5011231;28;20938;-68
2023/10/10 01:38:56;;;;;;;11.80;8.00;;;11.10;99.90;;;;;;5011013;28;20487;-70
2023/10/10 01:41:31;;;;;;;7.83;6.80;;;11.10;99.90;;;;;;5010957;28;20430;-69
2023/10/10 01:44:09;;;;;;;12.20;7.83;;;11.00;99.90;;;;;;5010815;28;20434;-68
2023/10/10 01:46:35;;;;;;;9.00;8.07;;;11.00;99.90;;;;;;5011314;28;20506;-72
2023/10/10 01:49:08;;;;;;;8.57;7.23;;;11.00;99.90;;;;;;5010960;28;20853;-71
2023/10/10 01:51:34;;;;;;;7.20;6.50;;;11.00;99.90;;;;;;5011043;28;20211;-71
2023/10/10 01:54:09;;;;;;;6.23;5.63;;;11.10;99.90;;;;;;5010740;28;20438;-71
2023/10/10 01:56:38;;;;;;;8.40;7.50;;;11.10;99.90;;;;;;5011022;28;20458;-71
2023/10/10 01:59:04;;;;;;;6.10;5.37;;;11.10;99.90;;;;;;5011325;28;20889;-71
2023/10/10 02:01:31;;;;;;;6.37;5.67;;;11.00;99.90;;;;;;5011902;28;20407;-71
2023/10/10 02:03:58;;;;;;;4.63;4.23;;;11.10;99.90;;;;;;5003663;28;20423;-70
2023/10/10 02:08:51;;;;;;;5.63;5.03;;;11.00;99.90;;;;;;5010814;28;21042;-71
2023/10/10 02:11:20;;;;;;;5.70;4.57;;;11.10;99.90;;;;;;5010935;28;20187;-70
2023/10/10 02:13:47;;;;;;;6.13;5.63;;;11.10;99.90;;;;;;5010580;28;20454;-71
2023/10/10 02:16:17;;;;;;;7.07;5.67;;;11.10;99.90;;;;;;5010605;28;20450;-70
2023/10/10 02:18:51;;;;;;;5.93;5.20;;;11.00;99.90;;;;;;5010789;28;20755;-70
2023/10/10 02:21:31;;;;;;;7.43;6.17;;;11.00;99.90;;;;;;5010661;28;20425;-72
2023/10/10 02:24:25;;;;;;;6.20;5.60;;;11.10;99.90;;;;;;5010794;28;20489;-70
2023/10/10 02:26:51;;;;;;;5.60;5.10;;;11.10;99.90;;;;;;5017266;28;20429;-71
2023/10/10 02:29:33;;;;;;;7.03;5.60;;;11.10;99.90;;;;;;5017392;28;20419;-72
2023/10/10 02:32:12;;;;;;;6.20;5.60;;;11.10;99.90;;;;;;5017222;28;20510;-72
2023/10/10 02:34:42;;;;;;;6.30;5.60;;;11.10;99.90;;;;;;5017447;28;20522;-71
2023/10/10 02:40:14;;;;;;;6.23;5.63;;;11.20;99.90;;;;;;5017203;28;20410;-69
2023/10/10 02:42:35;;;;;;;8.80;5.30;;;11.20;99.90;;;;;;5016305;28;20482;-71
2023/10/10 02:45:02;;;;;;;6.57;5.73;;;11.20;99.90;;;;;;5016756;28;20430;-70
2023/10/10 02:47:30;;;;;;;9.93;6.00;;;11.20;99.90;;;;;;5016815;28;20430;-69
2023/10/10 02:50:40;;;;;;;7.60;6.10;;;11.20;99.90;;;;;;5016739;28;20465;-69
2023/10/10 02:52:59;;;;;;;6.77;5.77;;;11.30;99.90;;;;;;5014347;28;20423;-69
2023/10/10 02:55:33;;;;;;;6.90;6.20;;;11.20;99.90;;;;;;5016954;28;20789;-71
2023/10/10 02:57:59;;;;;;;7.80;6.23;;;11.30;99.90;;;;;;4999156;28;20455;-69
2023/10/10 03:02:54;;;;;;;7.30;6.33;;;11.30;99.90;;;;;;5016969;28;20979;-70
2023/10/10 03:05:38;;;;;;;8.37;6.17;;;11.40;99.90;;;;;;5016589;28;20431;-70
2023/10/10 03:08:13;;;;;;;9.10;6.37;;;11.30;99.90;;;;;;5016659;28;20403;-69
2023/10/10 03:10:53;;;;;;;8.47;6.10;;;11.30;99.90;;;;;;5016566;28;20425;-68
2023/10/10 03:13:47;;;;;;;10.00;6.40;;;11.30;99.90;;;;;;5016268;28;20426;-68
2023/10/10 03:29:20;;;;;;;10.00;7.00;;;11.40;99.90;;;;;;5016689;28;20549;-70
2023/10/10 03:31:49;;;;;;;10.10;6.83;;;11.40;99.90;;;;;;5016796;28;20418;-69
2023/10/10 03:36:44;;;;;;;9.20;7.43;;;11.50;99.90;;;;;;5014838;28;20454;-69
2023/10/10 05:23:59;;;;;;;10.80;7.77;;;12.40;99.90;;;;;;5011146;28;20490;-69
2023/10/10 05:26:25;;;;;;;8.80;7.30;;;12.30;99.90;;;;;;5011480;28;20468;-70
2023/10/10 05:28:50;;;;;;;10.97;7.33;;;12.40;99.90;;;;;;5011873;28;20975;-71
2023/10/10 05:31:21;;;;;;;9.60;8.20;;;12.50;99.90;;;;;;5035356;22;20239;-73
2023/10/10 05:33:47;;;;;;;12.23;8.30;;;12.50;99.90;;;;;;5029316;28;20214;-73
2023/10/10 05:36:13;;;;;;;10.23;7.67;;;12.50;99.90;;;;;;5032007;28;20431;-74
2023/10/10 05:38:39;;;;;;;7.77;7.00;;;12.50;99.90;;;;;;5032221;28;20440;-71
2023/10/10 05:41:12;;;;;;;9.93;7.80;;;12.60;99.90;;;;;;5031369;28;20529;-74
2023/10/10 05:43:37;;;;;;;10.70;9.00;;;12.60;99.90;;;;;;5013930;28;20254;-73
2023/10/10 05:46:06;;;;;;;10.03;8.17;;;12.70;99.90;;;;;;5031616;28;20458;-74
2023/10/10 05:48:32;;;;;;;9.63;7.77;;;12.70;99.90;;;;;;5031714;28;20159;-74
2023/10/10 05:50:59;;;;;;;9.03;8.13;;;12.70;99.90;;;;;;5031341;28;20445;-74
2023/10/10 05:53:25;;;;;;;12.40;8.17;;;12.80;99.90;;;;;;5031492;28;20442;-74
2023/10/10 05:55:58;;;;;;;10.40;8.37;;;12.90;99.90;;;;;;5031151;28;20980;-73
2023/10/10 05:58:24;;;;;;;10.00;8.37;;;12.90;99.90;;;;;;5031289;28;20461;-73
2023/10/10 06:00:50;;;;;;;11.53;8.13;;;13.00;99.90;;;;;;5012498;28;20434;-73
2023/10/10 06:03:17;;;;;;;11.20;7.80;;;13.00;99.90;;;;;;5031119;28;20405;-71
2023/10/10 06:05:49;;;;;;;12.33;7.90;;;13.10;99.90;;;;;;5031119;28;20411;-74
2023/10/10 06:08:15;;;;;;;10.67;7.00;;;13.20;99.90;;;;;;5031155;28;20176;-72
2023/10/10 06:10:41;;;;;;;9.27;7.93;;;13.20;99.90;;;;;;5013172;28;20426;-73
2023/10/10 06:13:07;;;;;;;9.13;6.60;;;13.30;99.90;;;;;;5031077;28;20571;-72
2023/10/10 06:15:34;;;;;;;8.60;7.37;;;13.30;99.90;;;;;;5031131;28;20497;-73
2023/10/10 06:18:13;;;;;;;9.53;7.90;;;13.40;99.90;;;;;;5030885;28;20689;-73
2023/10/10 06:20:43;;;;;;;9.83;6.87;;;13.40;99.90;;;;;;5023679;28;20426;-74
2023/10/10 06:23:16;;;;;;;8.63;6.90;;;13.40;99.90;;;;;;5011514;28;20415;-74
2023/10/10 06:25:42;;;;;;;9.70;7.77;;;13.40;99.90;;;;;;5011370;28;20422;-72
2023/10/10 06:28:25;;;;;;;8.80;7.70;;;13.50;99.90;;;;;;5011201;28;20425;-73
2023/10/10 06:30:55;;;;;;;8.90;7.53;;;13.60;99.90;;;;;;5011244;28;20565;-75
2023/10/10 06:33:27;;;;;;;8.80;6.83;;;13.60;99.90;;;;;;5012009;28;20913;-73
2023/10/10 06:41:38;;;;;;;7.63;6.10;;;13.80;99.90;;;;;;5011541;28;20431;-73
2023/10/10 06:44:04;;;;;;;6.93;5.43;;;13.90;99.90;;;;;;5011569;28;20404;-73
2023/10/10 06:46:32;;;;;;;7.93;6.40;;;13.90;99.90;;;;;;5011947;28;20409;-74
2023/10/10 06:49:06;;;;;;;7.03;6.17;;;14.00;99.90;;;;;;5011468;28;20217;-75
2023/10/10 06:51:40;;;;;;;10.10;6.53;;;14.10;99.90;;;;;;5011515;28;20486;-75
2023/10/10 06:54:19;;;;;;;7.27;6.20;;;14.00;99.90;;;;;;5011253;28;20408;-73
2023/10/10 06:57:04;;;;;;;6.40;4.40;;;14.00;99.90;;;;;;5011249;28;20448;-73
2023/10/10 06:59:31;;;;;;;8.70;5.30;;;14.10;99.90;;;;;;5011439;28;20462;-72
2023/10/10 07:02:13;;;;;;;9.17;4.63;;;14.20;99.90;;;;;;5011865;28;20934;-74
2023/10/10 07:04:38;;;;;;;5.40;5.00;;;14.10;99.90;;;;;;4993929;28;20430;-76
2023/10/10 07:07:06;;;;;;;5.67;4.53;;;14.00;99.90;;;;;;5010993;28;20462;-72
2023/10/10 07:09:36;;;;;;;5.17;4.53;;;14.10;99.90;;;;;;5011389;28;20184;-73
2023/10/10 07:12:09;;;;;;;9.20;4.93;;;14.10;99.90;;;;;;5014279;28;20442;-73
2023/10/10 07:14:43;;;;;;;5.07;3.90;;;14.10;99.90;;;;;;5015482;28;20419;-73
2023/10/10 07:17:15;;;;;;;7.50;4.97;;;14.20;99.90;;;;;;4997191;28;20539;-72
2023/10/10 07:21:04;;;;;;;10.40;4.47;;;14.20;99.90;;;;;;5015042;28;20422;-73
2023/10/10 07:22:45;;;;;;;7.00;4.83;;;14.20;99.90;;;;;;5014502;28;20440;-73
2023/10/10 07:25:25;;;;;;;5.93;4.80;;;14.30;99.90;;;;;;5015157;28;20615;-73
2023/10/10 07:27:51;;;;;;;9.57;3.80;;;14.30;99.90;;;;;;5014932;28;20413;-74
2023/10/10 07:30:17;;;;;;;6.67;5.13;;;14.40;99.90;;;;;;5014676;28;20503;-73
2023/10/10 07:32:48;;;;;;;10.10;4.60;;;14.30;99.90;;;;;;5014155;28;20198;-73
2023/10/10 07:35:15;;;;;;;7.20;5.30;;;14.30;99.90;;;;;;5014201;28;20417;-73
2023/10/10 07:37:43;;;;;;;5.97;5.37;;;14.40;99.90;;;;;;4996686;28;20543;-72
2023/10/10 07:42:41;;;;;;;5.50;5.00;;;14.60;99.90;;;;;;5033892;28;20436;-72
2023/10/10 07:45:13;;;;;;;5.40;4.53;;;14.70;99.90;;;;;;5033551;28;20438;-71
2023/10/10 07:50:36;;;;;;;7.07;4.90;;;14.60;99.90;;;;;;5002891;28;20898;-72
2023/10/10 07:53:12;;;;;;;7.97;5.10;;;14.50;99.90;;;;;;5033870;28;20889;-74
2023/10/10 07:56:00;;;;;;;5.77;4.67;;;14.50;99.90;;;;;;5033831;28;20408;-75
2023/10/10 07:58:41;;;;;;;5.70;4.60;;;14.70;99.90;;;;;;5034098;28;20461;-73
2023/10/10 08:01:09;;;;;;;6.20;5.60;;;14.70;99.90;;;;;;5033997;28;20434;-74
2023/10/10 08:03:44;;;;;;;8.50;6.43;;;14.80;99.90;;;;;;5016739;28;20519;-75
2023/10/10 08:06:21;;;;;;;6.67;6.07;;;14.80;99.90;;;;;;5033502;28;20849;-74
2023/10/10 08:09:18;;;;;;;6.77;5.23;;;14.80;99.90;;;;;;5033586;28;20415;-73
2023/10/10 08:11:37;;;;;;;5.47;4.93;;;14.80;99.90;;;;;;5033240;28;20961;-75
2023/10/10 08:14:07;;;;;;;8.00;5.00;;;15.00;99.90;;;;;;5033429;28;20869;-73
2023/10/10 08:16:40;;;;;;;5.63;5.03;;;15.10;99.90;;;;;;5033422;28;20959;-74
2023/10/10 08:19:10;;;;;;;6.07;5.10;;;15.30;99.90;;;;;;5033874;28;20782;-73
2023/10/10 08:21:38;;;;;;;8.60;4.80;;;15.40;99.90;;;;;;5035947;28;20434;-72
2023/10/10 08:24:06;;;;;;;6.30;5.27;;;15.40;99.90;;;;;;5036253;28;20505;-73
2023/10/10 08:26:39;;;;;;;7.03;5.40;;;15.50;99.90;;;;;;5035555;28;20416;-73
2023/10/10 08:29:06;;;;;;;8.40;5.30;;;15.70;99.90;;;;;;5033570;28;20923;-75
2023/10/10 08:31:32;;;;;;;5.67;4.90;;;15.80;99.90;;;;;;5032840;28;20457;-73
2023/10/10 08:33:58;;;;;;;8.10;4.67;;;15.70;99.90;;;;;;5018244;28;20442;-72
2023/10/10 08:36:24;;;;;;;5.30;3.70;;;15.50;99.90;;;;;;5024510;28;20457;-74
2023/10/10 08:38:57;;;;;;;4.83;4.43;;;15.50;99.90;;;;;;5019103;28;20183;-74
2023/10/10 08:41:26;;;;;;;5.70;4.40;;;15.60;99.90;;;;;;5027178;28;20232;-73
2023/10/10 08:43:53;;;;;;;5.70;3.80;;;15.50;99.90;;;;;;5000972;28;20422;-74
2023/10/10 08:46:24;;;;;;;3.93;3.20;;;15.50;99.90;;;;;;5023664;28;20930;-73
2023/10/10 08:48:50;;;;;;;4.77;4.10;;;15.80;99.90;;;;;;5026244;28;20415;-73
2023/10/10 08:51:17;;;;;;;5.03;3.87;;;16.00;99.90;;;;;;5015484;28;20538;-74
2023/10/10 08:53:43;;;;;;;5.67;3.63;;;16.10;99.90;;;;;;5032683;28;20844;-73
2023/10/10 08:56:11;;;;;;;3.50;3.20;;;15.90;99.90;;;;;;5014112;28;20423;-75
2023/10/10 08:58:37;;;;;;;3.60;3.30;;;15.60;99.90;;;;;;5024168;28;20422;-73
2023/10/10 09:01:05;;;;;;;4.03;3.00;;;15.80;99.90;;;;;;5016573;28;20450;-74
2023/10/10 09:03:34;;;;;;;3.40;3.10;;;15.60;99.90;;;;;;5010651;28;20179;-72
2023/10/10 09:06:22;;;;;;;4.87;3.40;;;15.70;99.90;;;;;;5019449;28;20418;-74
2023/10/10 09:08:49;;;;;;;5.83;3.40;;;15.70;99.90;;;;;;5011777;28;20436;-73
2023/10/10 09:11:20;;;;;;;4.37;3.60;;;15.70;99.90;;;;;;5018827;28;20917;-72
2023/10/10 09:13:51;;;;;;;5.20;3.43;;;15.70;99.90;;;;;;5027274;28;20465;-72
2023/10/10 09:16:37;;;;;;;4.97;3.57;;;15.50;99.90;;;;;;5020851;28;20418;-73
2023/10/10 09:19:09;;;;;;;4.97;3.50;;;15.90;99.90;;;;;;5015995;28;20438;-74
2023/10/10 09:21:50;;;;;;;3.23;2.90;;;15.60;99.90;;;;;;5028441;28;20434;-74
2023/10/10 09:24:31;;;;;;;5.03;3.80;;;15.60;99.90;;;;;;5008385;28;20438;-74
2023/10/10 09:26:59;;;;;;;3.60;2.80;;;15.70;99.90;;;;;;5012876;28;20986;-74
2023/10/10 09:29:42;;;;;;;4.87;3.43;;;15.60;99.90;;;;;;5026630;28;20419;-73
2023/10/10 09:32:08;;;;;;;5.07;3.00;;;15.70;99.90;;;;;;5019136;28;20551;-73
2023/10/10 09:34:40;;;;;;;3.53;3.00;;;16.20;99.90;;;;;;5020356;28;20852;-74
2023/10/10 09:37:14;;;;;;;3.10;2.80;;;16.40;99.90;;;;;;5024042;28;20508;-74
2023/10/10 09:39:42;;;;;;;2.70;2.50;;;16.60;99.90;;;;;;5010854;28;20536;-71
2023/10/10 09:52:54;;;;;;;3.47;2.37;;;15.90;99.90;;;;;;5012145;28;20442;-74
2023/10/10 09:58:15;;;;;;;4.20;2.27;;;15.80;99.90;;;;;;5011941;28;20459;-74
2023/10/10 10:09:17;;;;;;;2.73;2.53;;;16.80;99.90;;;;;;5009342;28;20407;-74
2023/10/10 10:12:11;;;;;;;2.57;2.37;;;16.30;99.90;;;;;;4998987;28;20450;-73
2023/10/10 10:14:54;;;;;;;2.10;1.87;;;16.30;99.90;;;;;;5004777;28;20971;-73
2023/10/10 10:17:44;;;;;;;4.70;1.87;;;16.50;99.90;;;;;;5011117;28;20458;-72
2023/10/10 10:20:20;;;;;;;4.20;2.40;;;16.40;99.90;;;;;;5016443;28;20419;-74
2023/10/10 10:22:53;;;;;;;2.33;1.93;;;15.90;99.90;;;;;;5030937;28;20515;-73
2023/10/10 10:25:22;;;;;;;2.80;2.43;;;16.20;99.90;;;;;;5013931;28;20538;-72
2023/10/10 10:27:53;;;;;;;2.23;2.03;;;16.30;99.90;;;;;;5010609;28;20489;-73
2023/10/10 10:32:51;;;;;;;2.87;2.67;;;16.30;99.90;;;;;;5013243;28;20973;-73
2023/10/10 10:35:22;;;;;;;2.20;2.00;;;16.20;99.90;;;;;;5010940;28;20400;-72
2023/10/10 10:37:59;;;;;;;7.63;2.83;;;16.30;99.90;;;;;;5025999;28;20450;-72
2023/10/10 10:43:14;;;;;;;3.47;2.67;;;16.30;99.90;;;;;;5000820;28;20556;-73
2023/10/10 10:46:05;;;;;;;4.67;3.23;;;16.40;99.90;;;;;;5012026;28;20442;-75
2023/10/10 10:48:35;;;;;;;3.23;2.70;;;16.40;99.90;;;;;;4996427;28;20464;-72
2023/10/10 10:51:41;;;;;;;3.63;2.77;;;16.30;99.90;;;;;;5008783;28;20489;-73
2023/10/10 10:54:35;;;;;;;3.00;2.13;;;16.20;99.90;;;;;;5012872;28;20410;-74
2023/10/10 10:57:01;;;;;;;5.03;2.60;;;16.60;99.90;;;;;;5009118;28;20447;-74
2023/10/10 10:59:35;;;;;;;2.83;2.40;;;16.30;99.90;;;;;;5007179;28;20775;-73
2023/10/10 11:02:05;;;;;;;3.80;2.00;;;16.40;99.90;;;;;;5014756;28;20455;-72
2023/10/10 11:07:01;;;;;;;2.73;2.50;;;16.90;99.90;;;;;;5010753;28;20538;-74
2023/10/10 11:09:36;;;;;;;3.13;2.70;;;17.10;99.90;;;;;;5008566;28;20245;-76
2023/10/10 11:12:05;;;;;;;3.63;2.43;;;17.00;99.90;;;;;;5015448;28;20428;-74
2023/10/10 11:14:32;;;;;;;6.70;2.80;;;16.80;99.90;;;;;;5015016;28;20982;-75
2023/10/10 11:16:58;;;;;;;2.93;2.63;;;17.00;99.90;;;;;;5015063;28;20827;-74
2023/10/10 11:19:47;;;;;;;7.10;3.10;;;17.00;99.90;;;;;;5014946;28;20403;-73
2023/10/10 11:22:38;;;;;;;2.50;2.30;;;16.90;99.90;;;;;;5013852;28;20448;-73
2023/10/10 11:25:04;;;;;;;2.63;2.43;;;17.00;99.90;;;;;;5012894;28;20453;-74
2023/10/10 11:27:33;;;;;;;3.10;2.20;;;16.80;99.90;;;;;;5014738;28;20435;-74
2023/10/10 11:30:08;;;;;;;4.17;3.50;;;17.10;99.90;;;;;;5009598;28;20428;-74
2023/10/10 11:32:45;;;;;;;2.87;2.57;;;17.00;99.90;;;;;;5013113;28;20512;-75
2023/10/10 11:35:22;;;;;;;3.90;3.20;;;16.70;99.90;;;;;;5009802;28;20439;-74
2023/10/10 11:37:49;;;;;;;3.67;2.70;;;16.90;99.90;;;;;;5012326;28;20544;-74
2023/10/10 11:42:56;;;;;;;4.47;3.03;;;16.60;99.90;;;;;;5012516;28;20807;-74
2023/10/10 11:45:26;;;;;;;3.87;2.93;;;16.40;99.90;;;;;;5007983;28;20492;-69
2023/10/10 11:47:53;;;;;;;4.67;2.83;;;16.30;99.90;;;;;;5011103;28;20441;-73
2023/10/10 11:50:27;;;;;;;2.90;2.50;;;16.40;99.90;;;;;;5014612;28;20454;-72
2023/10/10 11:52:57;;;;;;;2.90;2.53;;;16.70;99.90;;;;;;5011652;28;20437;-73
2023/10/10 11:55:24;;;;;;;3.60;2.77;;;16.70;99.90;;;;;;5011584;28;20518;-73
2023/10/10 11:57:50;;;;;;;7.63;2.53;;;16.80;99.90;;;;;;5011698;28;20462;-72
2023/10/10 12:00:29;;;;;;;3.10;2.50;;;16.90;99.90;;;;;;5010445;28;20929;-74
2023/10/10 12:02:58;;;;;;;2.77;2.50;;;17.00;99.90;;;;;;5013747;28;20435;-72
2023/10/10 12:08:05;;;;;;;2.83;2.63;;;16.90;99.90;;;;;;5009167;28;20409;-73
2023/10/10 12:10:47;;;;;;;2.00;1.70;;;16.90;99.90;;;;;;5001990;28;20852;-72
2023/10/10 12:13:33;;;;;;;4.10;2.30;;;16.80;99.90;;;;;;5005639;28;21005;-73
2023/10/10 12:16:10;;;;;;;2.77;2.37;;;17.20;99.90;;;;;;5017619;28;20485;-73
2023/10/10 12:18:43;;;;;;;2.97;2.10;;;17.50;99.90;;;;;;5030073;28;20463;-74
2023/10/10 12:21:10;;;;;;;4.20;2.63;;;17.70;99.90;;;;;;5012187;28;20446;-75
2023/10/10 12:23:36;;;;;;;4.73;2.13;;;17.60;99.90;;;;;;5012447;28;20472;-74
2023/10/10 12:26:03;;;;;;;3.83;2.40;;;17.20;99.90;;;;;;5011173;28;20488;-74
2023/10/10 12:28:28;;;;;;;2.20;2.00;;;17.50;99.90;;;;;;5015720;28;20547;-73
2023/10/10 12:30:57;;;;;;;4.43;2.17;;;17.70;99.90;;;;;;5006356;28;20441;-72
2023/10/10 12:33:26;;;;;;;2.53;2.20;;;17.80;99.90;;;;;;5009997;28;20194;-75
2023/10/10 12:35:51;;;;;;;2.30;2.10;;;17.70;99.90;;;;;;5009268;28;20527;-74
2023/10/10 12:38:21;;;;;;;7.03;2.10;;;17.40;99.90;;;;;;5014999;28;20936;-73
2023/10/10 12:40:49;;;;;;;5.30;4.80;;;17.30;99.90;;;;;;5011320;28;20177;-73
2023/10/10 12:43:15;;;;;;;4.53;2.77;;;17.10;99.90;;;;;;5014251;28;20471;-72
2023/10/10 12:45:41;;;;;;;2.50;2.30;;;17.20;99.90;;;;;;5021162;28;20459;-74
2023/10/10 12:48:13;;;;;;;3.00;2.30;;;17.30;99.90;;;;;;5000375;28;20459;-73
2023/10/10 12:50:44;;;;;;;4.07;2.57;;;17.30;99.90;;;;;;5026363;28;20218;-73
2023/10/10 12:53:15;;;;;;;3.60;2.30;;;17.00;99.90;;;;;;5006710;28;20415;-74
2023/10/10 12:56:03;;;;;;;2.67;2.10;;;17.30;99.90;;;;;;5018685;28;20437;-74
2023/10/10 12:58:30;;;;;;;4.10;3.70;;;17.20;99.90;;;;;;5029510;28;20542;-75
2023/10/10 13:00:58;;;;;;;4.83;2.27;;;17.20;99.90;;;;;;5013137;28;21193;-74
2023/10/10 13:03:28;;;;;;;4.20;2.30;;;17.40;99.90;;;;;;5014781;28;20508;-77
2023/10/10 13:06:04;;;;;;;2.53;2.07;;;17.60;99.90;;;;;;5013117;28;20936;-74
2023/10/10 13:08:47;;;;;;;2.67;2.00;;;17.60;99.90;;;;;;5009945;28;20417;-73
2023/10/10 13:11:16;;;;;;;2.53;2.33;;;17.70;99.90;;;;;;5017941;28;20441;-74
2023/10/10 13:13:45;;;;;;;2.13;1.80;;;17.50;99.90;;;;;;5020963;28;20412;-74
2023/10/10 13:16:24;;;;;;;2.47;2.27;;;17.60;99.90;;;;;;5022817;28;20414;-72
2023/10/10 13:18:56;;;;;;;6.70;2.70;;;17.40;99.90;;;;;;5009272;28;20889;-73
2023/10/10 13:21:23;;;;;;;2.17;1.73;;;17.30;99.90;;;;;;5015636;28;20489;-73
2023/10/10 13:23:50;;;;;;;3.83;2.10;;;17.30;99.90;;;;;;5025061;28;20407;-72
2023/10/10 13:26:16;;;;;;;5.93;2.27;;;17.30;99.90;;;;;;5022803;28;20427;-73
2023/10/10 13:28:46;;;;;;;2.23;2.00;;;17.50;99.90;;;;;;5009205;28;20499;-72
2023/10/10 13:31:17;;;;;;;2.63;2.43;;;17.60;99.90;;;;;;5024181;28;20477;-74
2023/10/10 13:33:43;;;;;;;3.43;2.27;;;17.80;99.90;;;;;;5024189;28;20434;-74
2023/10/10 13:36:15;;;;;;;2.10;2.00;;;17.70;99.90;;;;;;5010231;28;20486;-73
2023/10/10 13:38:48;;;;;;;2.10;1.90;;;17.70;99.90;;;;;;5011942;28;20539;-74
2023/10/10 13:41:19;;;;;;;4.37;2.40;;;17.50;99.90;;;;;;5019719;28;20477;-74
2023/10/10 13:43:51;;;;;;;2.67;2.20;;;17.70;99.90;;;;;;5024073;28;20477;-74
2023/10/10 13:46:20;;;;;;;2.60;2.23;;;17.80;99.90;;;;;;5028472;28;20839;-72
2023/10/10 13:48:48;;;;;;;2.30;2.10;;;17.60;99.90;;;;;;5016127;28;20427;-73
2023/10/10 13:51:16;;;;;;;3.27;2.30;;;17.60;99.90;;;;;;5019957;28;20443;-74
2023/10/10 13:53:44;;;;;;;3.70;2.40;;;17.40;99.90;;;;;;5010096;28;20439;-74
2023/10/10 13:56:11;;;;;;;3.43;2.27;;;17.20;99.90;;;;;;5012257;28;20415;-72
2023/10/10 13:58:40;;;;;;;4.40;1.77;;;17.30;99.90;;;;;;5027820;28;20468;-73
2023/10/10 14:01:29;;;;;;;2.23;1.97;;;17.40;99.90;;;;;;5004558;28;20510;-72
2023/10/10 14:04:00;;;;;;;2.17;2.00;;;17.30;99.90;;;;;;5008544;28;20912;-73
2023/10/10 14:06:27;;;;;;;2.33;2.13;;;17.30;99.90;;;;;;5023815;28;20420;-72
2023/10/10 14:08:53;;;;;;;2.87;2.67;;;17.20;99.90;;;;;;5021677;28;20444;-73
2023/10/10 14:11:22;;;;;;;4.97;2.47;;;17.20;99.90;;;;;;5021183;28;20472;-74
2023/10/10 14:13:56;;;;;;;2.27;1.97;;;17.10;99.90;;;;;;5013680;28;20421;-75
2023/10/10 14:16:23;;;;;;;2.10;1.90;;;17.40;99.90;;;;;;5022569;28;20801;-74
2023/10/10 14:18:50;;;;;;;3.70;2.37;;;17.50;99.90;;;;;;5025431;28;20428;-79
2023/10/10 14:21:16;;;;;;;2.50;2.23;;;17.50;99.90;;;;;;5019630;28;20463;-73
2023/10/10 14:23:45;;;;;;;3.00;2.40;;;17.50;99.90;;;;;;5003492;28;20951;-74
2023/10/10 14:26:18;;;;;;;3.57;2.00;;;17.40;99.90;;;;;;5012903;28;20470;-73
2023/10/10 14:28:52;;;;;;;3.60;2.10;;;17.40;99.90;;;;;;5019513;28;20432;-72
2023/10/10 14:31:23;;;;;;;4.10;2.57;;;17.10;99.90;;;;;;5019458;28;20471;-74
2023/10/10 14:33:50;;;;;;;3.53;2.30;;;17.10;99.90;;;;;;5016774;28;20434;-73
2023/10/10 14:36:16;;;;;;;3.67;2.30;;;17.20;99.90;;;;;;5012051;28;20425;-72
2023/10/10 14:38:45;;;;;;;2.83;2.47;;;17.10;99.90;;;;;;5003493;28;20590;-74
2023/10/10 14:41:18;;;;;;;2.20;2.00;;;17.20;99.90;;;;;;5008919;28;20457;-75
2023/10/10 14:43:47;;;;;;;4.43;2.40;;;17.10;99.90;;;;;;5015394;28;20429;-75
2023/10/10 14:46:31;;;;;;;7.83;2.33;;;17.10;99.90;;;;;;5017722;28;20469;-73
2023/10/10 14:49:10;;;;;;;2.93;2.33;;;17.00;99.90;;;;;;5011953;28;20475;-74
2023/10/10 14:51:37;;;;;;;3.07;2.70;;;17.10;99.90;;;;;;5008506;28;20465;-75
2023/10/10 14:54:08;;;;;;;5.20;2.60;;;17.10;99.90;;;;;;5008042;28;20938;-73
2023/10/10 14:56:36;;;;;;;2.70;2.50;;;17.10;99.90;;;;;;5017397;28;20462;-77
2023/10/10 14:59:04;;;;;;;3.77;2.63;;;17.10;99.90;;;;;;5021839;28;20407;-74
2023/10/10 15:01:36;;;;;;;3.90;2.40;;;17.10;99.90;;;;;;5020583;28;20499;-73
2023/10/10 15:04:06;;;;;;;2.70;2.30;;;17.10;99.90;;;;;;5023095;28;20424;-73
2023/10/10 15:06:36;;;;;;;5.30;2.90;;;17.00;99.90;;;;;;5020464;28;20772;-74
2023/10/10 15:09:02;;;;;;;3.07;2.27;;;16.90;99.90;;;;;;5012169;28;20417;-74
2023/10/10 15:11:30;;;;;;;3.10;2.53;;;16.90;99.90;;;;;;5018866;28;20447;-74
2023/10/10 15:13:58;;;;;;;2.50;2.30;;;16.90;99.90;;;;;;5019345;28;20529;-74
2023/10/10 15:16:27;;;;;;;2.70;2.50;;;16.90;99.90;;;;;;5017924;28;20507;-73
2023/10/10 15:18:53;;;;;;;2.87;2.20;;;16.80;99.90;;;;;;5016273;28;20416;-71
2023/10/10 15:21:20;;;;;;;2.43;2.23;;;16.80;99.90;;;;;;5021857;28;20428;-72
2023/10/10 15:23:46;;;;;;;3.40;2.20;;;16.90;99.90;;;;;;5028863;28;20413;-73
2023/10/10 15:26:17;;;;;;;2.70;2.33;;;16.90;99.90;;;;;;5011348;28;20440;-73
2023/10/10 15:28:44;;;;;;;4.60;1.97;;;16.90;99.90;;;;;;5009401;28;20426;-74
2023/10/10 15:31:10;;;;;;;2.50;2.20;;;17.00;99.90;;;;;;5018654;28;20468;-73
2023/10/10 15:33:36;;;;;;;2.90;2.60;;;16.90;99.90;;;;;;5020540;28;20415;-73
2023/10/10 15:36:06;;;;;;;3.87;2.13;;;16.80;99.90;;;;;;5027810;28;20774;-74
2023/10/10 15:38:32;;;;;;;2.40;2.20;;;16.70;99.90;;;;;;5022699;28;20511;-72
2023/10/10 15:41:05;;;;;;;3.87;2.30;;;16.60;99.90;;;;;;5011228;28;20445;-73
2023/10/10 15:43:31;;;;;;;2.20;2.00;;;16.60;99.90;;;;;;5023591;28;20516;-74
2023/10/10 15:45:57;;;;;;;3.13;2.30;;;16.60;99.90;;;;;;5016830;28;20443;-73
2023/10/10 15:48:24;;;;;;;2.47;2.27;;;16.50;99.90;;;;;;5012848;28;20206;-74
2023/10/10 15:50:53;;;;;;;3.00;2.63;;;16.50;99.90;;;;;;5010696;28;20419;-76
2023/10/10 15:53:25;;;;;;;3.83;2.53;;;16.50;99.90;;;;;;5022227;28;20892;-74
2023/10/10 15:56:10;;;;;;;3.33;2.50;;;16.50;99.90;;;;;;5017216;28;20439;-76
2023/10/10 15:58:39;;;;;;;6.47;2.47;;;16.40;99.90;;;;;;5016588;28;20469;-74
2023/10/10 16:01:14;;;;;;;3.43;3.03;;;16.40;99.90;;;;;;5019115;28;20820;-74
2023/10/10 16:03:47;;;;;;;2.97;2.40;;;16.30;99.90;;;;;;5026176;28;20486;-74
2023/10/10 16:06:18;;;;;;;4.10;2.77;;;16.20;99.90;;;;;;5027600;28;20487;-74